createdAt,value
2024-05-09T00:00:35.932Z,10.32
2024-05-09T00:03:10.613Z,10.11
2024-05-09T00:05:42.434Z,10.11
2024-05-09T00:08:10.620Z,10.13
2024-05-09T00:10:39.341Z,10.08
2024-05-09T00:13:07.607Z,10.15
2024-05-09T00:15:35.193Z,10.23
2024-05-09T00:18:03.131Z,10.12
2024-05-09T00:20:37.530Z,10.15
2024-05-09T00:23:07.843Z,10.11
2024-05-09T00:25:35.482Z,10.08
2024-05-09T00:28:02.546Z,10.15
2024-05-09T00:30:34.393Z,10.02
2024-05-09T00:33:07.109Z,9.97
2024-05-09T00:35:35.321Z,10.05
2024-05-09T00:38:02.275Z,9.94
2024-05-09T00:40:39.159Z,9.78
2024-05-09T00:43:08.405Z,9.90
2024-05-09T00:45:35.651Z,9.84
2024-05-09T00:48:05.122Z,9.80
2024-05-09T00:50:36.783Z,9.82
2024-05-09T00:53:08.749Z,9.84
2024-05-09T00:55:37.632Z,9.78
2024-05-09T00:58:05.328Z,9.74
2024-05-09T01:00:38.422Z,9.77
2024-05-09T01:03:07.969Z,9.82
2024-05-09T01:05:35.695Z,9.80
2024-05-09T01:08:03.282Z,9.80
2024-05-09T01:10:34.630Z,9.83
2024-05-09T01:13:06.564Z,9.75
2024-05-09T01:15:34.729Z,9.73
2024-05-09T01:18:06.901Z,9.70
2024-05-09T01:20:41.077Z,9.56
2024-05-09T01:23:11.209Z,9.50
2024-05-09T01:25:38.220Z,9.41
2024-05-09T01:28:05.640Z,9.36
2024-05-09T01:30:35.554Z,9.43
2024-05-09T01:33:05.672Z,9.40
2024-05-09T01:35:33.685Z,9.30
2024-05-09T01:38:00.409Z,9.26
2024-05-09T01:40:36.329Z,9.25
2024-05-09T01:43:06.123Z,9.29
2024-05-09T01:45:32.875Z,9.37
2024-05-09T01:47:59.877Z,9.33
2024-05-09T01:50:37.363Z,9.28
2024-05-09T01:53:08.279Z,9.30
2024-05-09T01:55:35.053Z,9.34
2024-05-09T01:58:01.652Z,9.27
2024-05-09T02:00:38.064Z,9.20
2024-05-09T02:03:15.000Z,9.13
2024-05-09T02:05:45.095Z,9.17
2024-05-09T02:08:17.481Z,9.14
2024-05-09T02:10:45.277Z,9.16
2024-05-09T02:13:13.065Z,9.12
2024-05-09T02:15:39.745Z,9.02
2024-05-09T02:18:07.987Z,9.10
2024-05-09T02:20:36.880Z,9.10
2024-05-09T02:23:05.993Z,9.09
2024-05-09T02:25:33.207Z,9.10
2024-05-09T02:28:00.032Z,9.08
2024-05-09T02:30:37.687Z,9.01
2024-05-09T02:33:08.248Z,8.97
2024-05-09T02:35:35.920Z,8.96
2024-05-09T02:38:02.788Z,8.92
2024-05-09T02:40:36.408Z,8.84
2024-05-09T02:43:06.341Z,8.82
2024-05-09T02:45:33.409Z,8.88
2024-05-09T02:48:00.799Z,8.86
2024-05-09T02:50:34.567Z,8.83
2024-05-09T02:53:06.055Z,8.83
2024-05-09T02:55:32.994Z,8.86
2024-05-09T02:57:59.804Z,8.88
2024-05-09T03:00:34.734Z,8.73
2024-05-09T03:03:08.344Z,8.71
2024-05-09T03:05:36.303Z,8.72
2024-05-09T03:08:03.371Z,8.62
2024-05-09T03:10:35.586Z,8.60
2024-05-09T03:13:08.041Z,8.58
2024-05-09T03:15:34.765Z,8.62
2024-05-09T03:18:01.813Z,8.59
2024-05-09T03:20:34.002Z,8.55
2024-05-09T03:23:02.637Z,8.58
2024-05-09T03:25:29.382Z,8.60
2024-05-09T03:27:55.971Z,8.68
2024-05-09T03:30:35.800Z,8.49
2024-05-09T03:33:10.768Z,8.41
2024-05-09T03:35:37.916Z,8.43
2024-05-09T03:38:04.897Z,8.47
2024-05-09T03:40:31.576Z,8.58
2024-05-09T03:42:58.812Z,8.54
2024-05-09T03:45:25.532Z,8.57
2024-05-09T03:47:52.660Z,8.59
2024-05-09T03:50:29.525Z,8.58
2024-05-09T03:53:00.429Z,8.60
2024-05-09T03:55:27.176Z,8.60
2024-05-09T03:57:53.789Z,8.62
2024-05-09T04:00:30.420Z,8.80
2024-05-09T04:03:02.578Z,8.81
2024-05-09T04:05:30.931Z,8.75
2024-05-09T04:07:57.878Z,8.87
2024-05-09T04:10:31.338Z,8.95
2024-05-09T04:13:00.696Z,8.91
2024-05-09T04:15:27.407Z,8.79
2024-05-09T04:17:54.237Z,8.95
2024-05-09T04:20:29.571Z,8.90
2024-05-09T04:23:04.394Z,9.01
2024-05-09T04:25:31.981Z,8.98
2024-05-09T04:27:58.622Z,9.14
2024-05-09T04:30:34.580Z,9.20
2024-05-09T04:33:06.734Z,9.19
2024-05-09T04:35:34.557Z,9.24
2024-05-09T04:38:01.400Z,9.46
2024-05-09T04:40:33.526Z,9.49
2024-05-09T04:43:03.697Z,9.72
2024-05-09T04:45:30.584Z,9.91
2024-05-09T04:47:57.712Z,10.14
2024-05-09T04:50:33.869Z,10.21
2024-05-09T04:53:05.112Z,10.26
2024-05-09T04:55:32.604Z,10.23
2024-05-09T04:57:59.230Z,10.39
2024-05-09T05:00:32.607Z,10.46
2024-05-09T05:03:09.220Z,10.73
2024-05-09T05:05:41.741Z,11.00
2024-05-09T05:08:12.365Z,11.25
2024-05-09T05:10:39.258Z,11.26
2024-05-09T05:13:23.706Z,11.40
2024-05-09T05:15:57.489Z,11.30
2024-05-09T05:18:25.967Z,11.24
2024-05-09T05:20:53.032Z,11.19
2024-05-09T05:23:20.757Z,11.65
2024-05-09T05:25:49.455Z,11.41
2024-05-09T05:28:17.180Z,11.48
2024-05-09T05:30:44.554Z,12.11
2024-05-09T05:33:15.593Z,12.11
2024-05-09T05:35:42.473Z,12.82
2024-05-09T05:38:10.695Z,13.74
2024-05-09T05:40:38.892Z,14.22
2024-05-09T05:43:11.032Z,14.04
2024-05-09T05:45:38.780Z,14.67
2024-05-09T05:48:07.927Z,14.73
2024-05-09T05:50:37.430Z,14.60
2024-05-09T05:53:06.492Z,15.36
2024-05-09T05:55:33.293Z,15.39
2024-05-09T05:58:00.927Z,15.78
2024-05-09T06:00:34.464Z,14.52
2024-05-09T06:03:05.534Z,14.06
2024-05-09T06:05:32.734Z,14.81
2024-05-09T06:07:59.612Z,15.15
2024-05-09T06:10:34.758Z,15.41
2024-05-09T06:13:05.483Z,15.20
2024-05-09T06:15:32.117Z,15.58
2024-05-09T06:17:59.248Z,15.85
2024-05-09T06:20:34.643Z,16.30
2024-05-09T06:23:04.797Z,15.50
2024-05-09T06:25:31.754Z,15.22
2024-05-09T06:28:00.027Z,15.09
2024-05-09T06:30:35.301Z,15.50
2024-05-09T06:33:07.217Z,16.20
2024-05-09T06:35:34.370Z,17.05
2024-05-09T06:38:01.640Z,17.55
2024-05-09T06:40:36.395Z,17.69
2024-05-09T06:43:10.576Z,17.27
2024-05-09T06:45:37.307Z,17.63
2024-05-09T06:48:04.471Z,18.20
2024-05-09T06:50:37.016Z,19.07
2024-05-09T06:53:05.169Z,19.60
2024-05-09T06:55:31.873Z,20.11
2024-05-09T06:57:58.507Z,19.97
2024-05-09T07:00:30.941Z,19.73
2024-05-09T07:03:14.365Z,19.98
2024-05-09T07:05:43.553Z,19.56
2024-05-09T07:08:10.502Z,20.65
2024-05-09T07:10:37.672Z,20.18
2024-05-09T07:13:11.585Z,19.08
2024-05-09T07:15:38.863Z,19.35
2024-05-09T07:18:13.703Z,19.41
2024-05-09T07:20:41.340Z,19.40
2024-05-09T07:23:12.084Z,19.57
2024-05-09T07:25:40.284Z,19.80
2024-05-09T07:28:17.672Z,20.31
2024-05-09T07:30:45.061Z,20.69
2024-05-09T07:33:20.890Z,21.01
2024-05-09T07:35:49.163Z,20.20
2024-05-09T07:38:15.932Z,21.45
2024-05-09T07:40:43.052Z,22.54
2024-05-09T07:43:13.138Z,22.04
2024-05-09T07:45:49.596Z,21.20
2024-05-09T07:52:24.305Z,21.14
2024-05-09T07:53:44.839Z,20.45
2024-05-09T07:56:15.540Z,21.69
2024-05-09T07:58:45.837Z,22.26
2024-05-09T08:01:12.459Z,22.60
2024-05-09T08:03:39.366Z,22.30
2024-05-09T08:06:06.124Z,21.53
2024-05-09T08:08:32.681Z,21.28
2024-05-09T08:10:59.262Z,20.79
2024-05-09T08:13:25.835Z,21.21
2024-05-09T08:15:52.717Z,22.03
2024-05-09T08:18:19.823Z,22.08
2024-05-09T08:20:48.810Z,22.10
2024-05-09T08:23:15.672Z,21.55
2024-05-09T08:25:42.276Z,22.55
2024-05-09T08:28:09.333Z,22.48
2024-05-09T08:30:37.712Z,21.99
2024-05-09T08:33:06.607Z,22.12
2024-05-09T08:35:34.574Z,22.79
2024-05-09T08:38:06.177Z,22.30
2024-05-09T08:40:36.237Z,22.47
2024-05-09T08:43:10.481Z,23.35
2024-05-09T08:45:43.156Z,22.76
2024-05-09T08:48:14.718Z,22.31
2024-05-09T08:50:43.144Z,22.14
2024-05-09T08:53:10.159Z,22.61
2024-05-09T08:55:40.682Z,23.59
2024-05-09T08:58:15.923Z,23.98
2024-05-09T09:00:44.186Z,23.70
2024-05-09T09:03:15.576Z,24.16
2024-05-09T09:05:52.099Z,24.16
2024-05-09T09:08:18.763Z,24.75
2024-05-09T09:10:47.771Z,24.68
2024-05-09T09:13:14.675Z,23.30
2024-05-09T09:15:49.173Z,22.79
2024-05-09T09:18:16.896Z,23.08
2024-05-09T09:20:44.437Z,23.41
2024-05-09T09:23:11.578Z,24.34
2024-05-09T09:25:41.463Z,23.84
2024-05-09T09:28:08.480Z,23.39
2024-05-09T09:30:39.439Z,23.49
2024-05-09T09:33:06.865Z,23.22
2024-05-09T09:35:34.439Z,22.98
2024-05-09T09:38:02.909Z,24.66
2024-05-09T09:40:36.140Z,23.31
2024-05-09T09:43:13.883Z,23.18
2024-05-09T09:45:43.670Z,23.88
2024-05-09T09:48:11.939Z,23.18
2024-05-09T09:50:40.136Z,25.16
2024-05-09T09:53:07.880Z,25.19
2024-05-09T09:55:35.630Z,24.21
2024-05-09T09:58:04.331Z,23.97
2024-05-09T10:00:34.293Z,25.13
2024-05-09T10:03:01.703Z,25.50
2024-05-09T10:05:33.336Z,26.80
2024-05-09T10:08:10.572Z,25.77
2024-05-09T10:10:37.448Z,25.06
2024-05-09T10:13:08.125Z,23.74
2024-05-09T10:15:46.187Z,24.11
2024-05-09T10:18:13.452Z,24.13
2024-05-09T10:20:41.984Z,24.45
2024-05-09T10:23:27.920Z,24.62
2024-05-09T10:26:01.992Z,24.80
2024-05-09T10:28:30.715Z,26.10
2024-05-09T10:31:12.819Z,26.02
2024-05-09T10:33:49.187Z,26.27
2024-05-09T10:36:21.600Z,26.10
2024-05-09T10:38:49.861Z,26.79
2024-05-09T10:41:17.406Z,26.26
2024-05-09T10:43:44.455Z,25.71
2024-05-09T10:46:12.154Z,25.69
2024-05-09T10:48:41.601Z,26.27
2024-05-09T10:51:08.899Z,26.13
2024-05-09T10:53:46.106Z,26.06
2024-05-09T10:56:16.386Z,26.77
2024-05-09T10:58:43.160Z,26.32
2024-05-09T11:01:13.393Z,24.91
2024-05-09T11:03:40.571Z,24.33
2024-05-09T11:06:08.163Z,25.12
2024-05-09T11:08:36.577Z,23.57
2024-05-09T11:11:07.602Z,24.39
2024-05-09T11:13:36.729Z,25.55
2024-05-09T11:16:04.590Z,25.23
2024-05-09T11:18:35.569Z,25.59
2024-05-09T11:21:12.996Z,25.06
2024-05-09T11:23:40.527Z,25.82
2024-05-09T11:26:07.450Z,26.26
2024-05-09T11:28:34.220Z,26.04
2024-05-09T11:31:09.096Z,26.70
2024-05-09T11:33:43.058Z,25.60
2024-05-09T11:36:10.277Z,26.03
2024-05-09T11:38:37.108Z,26.64
2024-05-09T11:41:05.740Z,26.29
2024-05-09T11:43:33.255Z,26.47
2024-05-09T11:46:00.576Z,27.16
2024-05-09T11:48:27.894Z,27.41
2024-05-09T11:50:55.764Z,27.54
2024-05-09T11:53:22.668Z,27.99
2024-05-09T11:55:49.324Z,27.44
2024-05-09T11:58:17.899Z,27.34
2024-05-09T12:00:45.581Z,27.45
2024-05-09T12:03:12.619Z,26.97
2024-05-09T12:05:39.599Z,26.29
2024-05-09T12:08:07.166Z,24.43
2024-05-09T12:10:35.971Z,25.61
2024-05-09T12:13:05.398Z,24.96
2024-05-09T12:15:33.970Z,24.70
2024-05-09T12:18:03.633Z,24.50
2024-05-09T12:20:36.753Z,25.22
2024-05-09T12:23:06.424Z,25.54
2024-05-09T12:25:33.168Z,24.30
2024-05-09T12:28:00.722Z,23.88
2024-05-09T12:30:35.798Z,25.16
2024-05-09T12:33:07.689Z,25.25
2024-05-09T12:35:34.650Z,25.85
2024-05-09T12:38:01.522Z,25.90
2024-05-09T12:40:35.576Z,25.33
2024-05-09T12:43:06.582Z,24.76
2024-05-09T12:45:33.690Z,25.92
2024-05-09T12:48:01.031Z,26.28
2024-05-09T12:50:32.606Z,27.64
2024-05-09T12:53:01.603Z,26.72
2024-05-09T12:55:31.814Z,26.91
2024-05-09T12:58:04.431Z,26.01
2024-05-09T13:00:33.964Z,25.93
2024-05-09T13:03:01.547Z,26.16
2024-05-09T13:05:28.843Z,26.76
2024-05-09T13:07:57.077Z,27.27
2024-05-09T13:10:31.708Z,27.58
2024-05-09T13:13:00.913Z,27.37
2024-05-09T13:15:28.374Z,26.72
2024-05-09T13:17:58.116Z,25.90
2024-05-09T13:20:32.681Z,25.10
2024-05-09T13:23:03.228Z,24.77
2024-05-09T13:25:30.039Z,25.24
2024-05-09T13:27:57.590Z,26.17
2024-05-09T13:32:55.024Z,25.44
2024-05-09T13:35:21.802Z,25.54
2024-05-09T13:37:48.836Z,25.65
2024-05-09T13:40:23.228Z,25.11
2024-05-09T13:42:53.896Z,24.61
2024-05-09T13:45:20.646Z,24.28
2024-05-09T13:47:47.714Z,23.99
2024-05-09T13:50:23.644Z,24.01
2024-05-09T13:52:58.124Z,23.51
2024-05-09T13:55:25.056Z,23.51
2024-05-09T13:57:52.089Z,23.56
2024-05-09T14:00:31.702Z,23.54
2024-05-09T14:03:05.663Z,23.16
2024-05-09T14:05:32.619Z,23.84
2024-05-09T14:07:59.580Z,23.70
2024-05-09T14:10:30.985Z,23.98
2024-05-09T14:12:58.812Z,23.64
2024-05-09T14:15:25.469Z,24.78
2024-05-09T14:17:52.192Z,24.63
2024-05-09T14:20:28.475Z,24.11
2024-05-09T14:22:58.413Z,24.74
2024-05-09T14:25:26.638Z,24.40
2024-05-09T14:27:54.090Z,23.64
2024-05-09T14:30:30.151Z,23.77
2024-05-09T14:33:02.552Z,23.70
2024-05-09T14:35:29.298Z,23.97
2024-05-09T14:37:55.928Z,23.60
2024-05-09T14:40:35.743Z,23.76
2024-05-09T14:43:07.855Z,23.67
2024-05-09T14:45:34.772Z,23.10
2024-05-09T14:48:02.285Z,23.41
2024-05-09T14:50:35.566Z,23.34
2024-05-09T14:53:06.403Z,23.67
2024-05-09T14:55:35.903Z,23.63
2024-05-09T14:58:03.632Z,23.39
2024-05-09T15:00:35.805Z,23.44
2024-05-09T15:03:04.728Z,22.82
2024-05-09T15:05:31.453Z,22.81
2024-05-09T15:07:58.751Z,22.86
2024-05-09T15:10:33.803Z,22.52
2024-05-09T15:13:03.005Z,22.61
2024-05-09T15:15:30.214Z,22.49
2024-05-09T15:17:57.155Z,21.89
2024-05-09T15:20:31.517Z,22.47
2024-05-09T15:23:02.647Z,22.78
2024-05-09T15:25:29.555Z,22.34
2024-05-09T15:27:56.467Z,22.64
2024-05-09T15:30:30.340Z,22.82
2024-05-09T15:32:59.975Z,22.64
2024-05-09T15:35:26.829Z,22.32
2024-05-09T15:37:53.495Z,22.56
2024-05-09T15:40:30.449Z,22.70
2024-05-09T15:43:04.642Z,22.04
2024-05-09T15:45:31.479Z,21.68
2024-05-09T15:47:58.718Z,21.69
2024-05-09T15:50:35.558Z,21.41
2024-05-09T15:53:06.696Z,21.66
2024-05-09T15:55:34.508Z,21.49
2024-05-09T15:58:02.029Z,21.65
2024-05-09T16:00:36.761Z,21.58
2024-05-09T16:03:07.245Z,21.80
2024-05-09T16:05:34.311Z,21.42
2024-05-09T16:08:01.095Z,21.35
2024-05-09T16:10:32.572Z,21.29
2024-05-09T16:13:01.050Z,21.89
2024-05-09T16:15:27.870Z,21.62
2024-05-09T16:17:55.184Z,21.47
2024-05-09T16:20:33.772Z,21.14
2024-05-09T16:23:06.380Z,21.17
2024-05-09T16:25:33.117Z,21.27
2024-05-09T16:28:00.222Z,21.11
2024-05-09T16:30:31.906Z,21.02
2024-05-09T16:33:02.431Z,21.11
2024-05-09T16:35:29.334Z,21.19
2024-05-09T16:37:56.004Z,21.05
2024-05-09T16:40:30.246Z,20.93
2024-05-09T16:43:04.723Z,20.86
2024-05-09T16:45:31.996Z,20.68
2024-05-09T16:47:59.650Z,20.49
2024-05-09T16:50:32.020Z,20.67
2024-05-09T16:53:00.669Z,20.97
2024-05-09T16:55:27.414Z,20.49
2024-05-09T16:57:55.243Z,20.13
2024-05-09T17:00:31.771Z,20.21
2024-05-09T17:03:07.442Z,20.89
2024-05-09T17:05:35.280Z,20.55
2024-05-09T17:08:02.486Z,20.46
2024-05-09T17:10:33.110Z,20.44
2024-05-09T17:13:02.446Z,20.52
2024-05-09T17:15:29.968Z,20.39
2024-05-09T17:17:56.868Z,20.37
2024-05-09T17:20:31.341Z,19.97
2024-05-09T17:23:02.046Z,20.06
2024-05-09T17:25:29.075Z,19.83
2024-05-09T17:27:56.087Z,20.04
2024-05-09T17:30:29.150Z,19.90
2024-05-09T17:33:02.263Z,19.90
2024-05-09T17:35:29.130Z,19.92
2024-05-09T17:37:56.469Z,19.64
2024-05-09T17:40:30.992Z,19.66
2024-05-09T17:43:01.611Z,19.50
2024-05-09T17:45:28.511Z,19.54
2024-05-09T17:47:55.561Z,19.83
2024-05-09T17:50:30.236Z,19.96
2024-05-09T17:53:01.337Z,19.41
2024-05-09T17:55:28.550Z,19.67
2024-05-09T17:57:55.490Z,19.88
2024-05-09T18:00:32.841Z,19.59
2024-05-09T18:03:05.701Z,19.22
2024-05-09T18:05:32.808Z,19.05
2024-05-09T18:07:59.973Z,19.06
2024-05-09T18:10:33.701Z,18.59
2024-05-09T18:13:05.642Z,18.71
2024-05-09T18:15:33.016Z,18.77
2024-05-09T18:18:00.116Z,18.47
2024-05-09T18:22:56.429Z,18.29
2024-05-09T18:25:23.172Z,17.82
2024-05-09T18:27:50.104Z,18.21
2024-05-09T18:30:24.148Z,18.11
2024-05-09T18:32:58.249Z,18.23
2024-05-09T18:35:24.891Z,18.27
2024-05-09T18:37:53.051Z,17.85
2024-05-09T18:40:27.335Z,17.55
2024-05-09T18:42:58.012Z,17.77
2024-05-09T18:45:24.716Z,18.08
2024-05-09T18:47:51.788Z,18.22
2024-05-09T18:50:28.438Z,18.17
2024-05-09T18:53:01.374Z,17.83
2024-05-09T18:55:27.998Z,18.05
2024-05-09T18:57:54.629Z,17.68
2024-05-09T19:00:31.338Z,17.74
2024-05-09T19:03:05.148Z,17.90
2024-05-09T19:05:32.715Z,18.16
2024-05-09T19:07:59.659Z,18.10
2024-05-09T19:10:32.192Z,18.09
2024-05-09T19:13:02.835Z,17.59
2024-05-09T19:15:30.779Z,18.05
2024-05-09T19:17:57.684Z,17.95
2024-05-09T19:20:28.727Z,18.06
2024-05-09T19:23:00.418Z,17.94
2024-05-09T19:25:27.018Z,17.56
2024-05-09T19:27:53.646Z,17.68
2024-05-09T19:30:29.383Z,17.66
2024-05-09T19:33:04.052Z,17.92
2024-05-09T19:35:30.735Z,17.36
2024-05-09T19:37:57.550Z,17.15
2024-05-09T19:40:30.721Z,17.29
2024-05-09T19:42:59.984Z,17.68
2024-05-09T19:45:26.689Z,17.78
2024-05-09T19:47:53.531Z,17.59
2024-05-09T19:50:27.040Z,17.26
2024-05-09T19:53:02.847Z,17.29
2024-05-09T19:55:29.619Z,17.34
2024-05-09T19:57:56.316Z,17.33
2024-05-09T20:00:32.150Z,16.81
2024-05-09T20:03:02.239Z,17.25
2024-05-09T20:05:31.084Z,17.41
2024-05-09T20:07:58.152Z,17.40
2024-05-09T20:10:31.070Z,17.39
2024-05-09T20:12:59.949Z,17.50
2024-05-09T20:15:26.837Z,17.50
2024-05-09T20:17:53.835Z,17.27
2024-05-09T20:20:31.902Z,17.10
2024-05-09T20:23:03.427Z,16.86
2024-05-09T20:25:30.152Z,17.23
2024-05-09T20:27:56.851Z,16.91
2024-05-09T20:30:30.657Z,17.06
2024-05-09T20:32:59.964Z,17.04
2024-05-09T20:35:26.923Z,17.11
2024-05-09T20:37:53.777Z,17.10
2024-05-09T20:40:28.381Z,17.16
2024-05-09T20:42:59.176Z,16.70
2024-05-09T20:45:26.339Z,16.58
2024-05-09T20:47:53.160Z,16.79
2024-05-09T20:50:28.508Z,16.58
2024-05-09T20:53:03.063Z,16.66
2024-05-09T20:55:30.110Z,16.99
2024-05-09T20:57:57.412Z,16.63
2024-05-09T21:00:33.854Z,16.76
2024-05-09T21:03:06.622Z,16.54
2024-05-09T21:05:34.259Z,16.70
2024-05-09T21:08:01.481Z,16.63
2024-05-09T21:10:32.655Z,16.42
2024-05-09T21:13:01.176Z,16.61
2024-05-09T21:15:28.116Z,16.74
2024-05-09T21:17:55.027Z,16.52
2024-05-09T21:20:28.695Z,16.63
2024-05-09T21:22:58.350Z,16.71
2024-05-09T21:25:25.110Z,16.85
2024-05-09T21:27:51.922Z,16.67
2024-05-09T21:30:27.885Z,16.71
2024-05-09T21:33:04.738Z,16.45
2024-05-09T21:35:31.659Z,16.45
2024-05-09T21:37:58.266Z,16.57
2024-05-09T21:40:31.611Z,16.53
2024-05-09T21:43:01.580Z,16.65
2024-05-09T21:45:28.352Z,16.63
2024-05-09T21:47:55.224Z,16.21
2024-05-09T21:50:27.338Z,16.08
2024-05-09T21:52:58.282Z,15.97
2024-05-09T21:55:24.869Z,16.06
2024-05-09T21:57:51.515Z,16.00
2024-05-09T22:00:28.523Z,15.87
2024-05-09T22:03:02.173Z,15.80
2024-05-09T22:05:29.123Z,15.87
2024-05-09T22:07:56.460Z,16.00
2024-05-09T22:10:27.141Z,15.78
2024-05-09T22:13:00.013Z,15.97
2024-05-09T22:15:27.047Z,15.83
2024-05-09T22:17:53.905Z,15.93
2024-05-09T22:20:28.798Z,16.00
2024-05-09T22:23:02.582Z,16.26
2024-05-09T22:25:30.990Z,16.14
2024-05-09T22:27:58.623Z,16.23
2024-05-09T22:30:34.026Z,15.76
2024-05-09T22:33:05.360Z,15.96
2024-05-09T22:35:32.244Z,15.97
2024-05-09T22:37:59.015Z,15.89
2024-05-09T22:40:37.906Z,15.85
2024-05-09T22:43:12.588Z,16.06
2024-05-09T22:45:39.586Z,16.13
2024-05-09T22:48:07.617Z,16.32
2024-05-09T22:50:34.442Z,16.26
2024-05-09T22:53:01.291Z,16.23
2024-05-09T22:55:27.996Z,16.14
2024-05-09T22:57:54.686Z,16.14
2024-05-09T23:00:29.375Z,16.20
2024-05-09T23:03:02.534Z,16.07
2024-05-09T23:05:30.279Z,15.96
2024-05-09T23:07:57.063Z,15.54
2024-05-09T23:10:31.709Z,15.52
2024-05-09T23:13:03.013Z,15.65
2024-05-09T23:15:29.898Z,15.54
2024-05-09T23:17:57.342Z,15.48
2024-05-09T23:20:33.001Z,15.52
2024-05-09T23:23:04.659Z,15.45
2024-05-09T23:25:31.271Z,15.67
2024-05-09T23:27:57.963Z,15.36
2024-05-09T23:30:33.737Z,15.59
2024-05-09T23:33:05.688Z,15.75
2024-05-09T23:35:32.483Z,15.47
2024-05-09T23:37:59.182Z,15.58
2024-05-09T23:40:36.873Z,15.39
2024-05-09T23:43:06.838Z,15.65
2024-05-09T23:45:33.816Z,15.74
2024-05-09T23:48:01.063Z,15.50
2024-05-09T23:50:34.423Z,15.46
2024-05-09T23:53:04.796Z,15.47
2024-05-09T23:55:32.045Z,15.58
2024-05-09T23:57:59.184Z,15.41
